sensor_id;sensor_type;location;lat;lon;timestamp;temperature;humidity
33825;DHT22;20127;48.962;8.342;2023-11-21T00:01:22;9.80;99.90
33825;DHT22;20127;48.962;8.342;2023-11-21T00:04:24;9.80;99.90
33825;DHT22;20127;48.962;8.342;2023-11-21T00:07:26;9.90;99.90
33825;DHT22;20127;48.962;8.342;2023-11-21T00:10:27;9.80;99.90
33825;DHT22;20127;48.962;8.342;2023-11-21T00:13:29;9.90;99.90
33825;DHT22;20127;48.962;8.342;2023-11-21T00:16:32;9.90;99.90
33825;DHT22;20127;48.962;8.342;2023-11-21T00:19:34;9.90;99.90
33825;DHT22;20127;48.962;8.342;2023-11-21T00:22:36;9.90;99.90
33825;DHT22;20127;48.962;8.342;2023-11-21T00:25:38;9.90;99.90
33825;DHT22;20127;48.962;8.342;2023-11-21T00:28:40;9.90;99.90
33825;DHT22;20127;48.962;8.342;2023-11-21T00:31:43;9.90;99.90
33825;DHT22;20127;48.962;8.342;2023-11-21T00:34:45;10.00;99.90
33825;DHT22;20127;48.962;8.342;2023-11-21T00:37:46;10.00;99.90
33825;DHT22;20127;48.962;8.342;2023-11-21T00:40:50;10.00;99.90
33825;DHT22;20127;48.962;8.342;2023-11-21T00:43:51;9.90;99.90
33825;DHT22;20127;48.962;8.342;2023-11-21T00:46:54;10.00;99.90
33825;DHT22;20127;48.962;8.342;2023-11-21T00:49:56;10.00;99.90
33825;DHT22;20127;48.962;8.342;2023-11-21T00:52:58;10.00;99.90
33825;DHT22;20127;48.962;8.342;2023-11-21T00:56:00;10.00;99.90
33825;DHT22;20127;48.962;8.342;2023-11-21T00:59:03;10.00;99.90
33825;DHT22;20127;48.962;8.342;2023-11-21T01:02:06;10.00;99.90
33825;DHT22;20127;48.962;8.342;2023-11-21T01:05:11;10.00;99.90
33825;DHT22;20127;48.962;8.342;2023-11-21T01:08:12;10.00;99.90
33825;DHT22;20127;48.962;8.342;2023-11-21T01:11:14;10.00;99.90
33825;DHT22;20127;48.962;8.342;2023-11-21T01:14:16;10.00;99.90
33825;DHT22;20127;48.962;8.342;2023-11-21T01:17:19;10.00;99.90
33825;DHT22;20127;48.962;8.342;2023-11-21T01:20:23;10.00;99.90
33825;DHT22;20127;48.962;8.342;2023-11-21T01:23:24;10.00;99.90
33825;DHT22;20127;48.962;8.342;2023-11-21T01:26:27;10.00;99.90
33825;DHT22;20127;48.962;8.342;2023-11-21T01:29:29;10.00;99.90
33825;DHT22;20127;48.962;8.342;2023-11-21T01:32:32;10.00;99.90
33825;DHT22;20127;48.962;8.342;2023-11-21T01:35:34;10.00;99.90
33825;DHT22;20127;48.962;8.342;2023-11-21T01:38:36;9.90;99.90
33825;DHT22;20127;48.962;8.342;2023-11-21T01:41:38;9.90;99.90
33825;DHT22;20127;48.962;8.342;2023-11-21T01:44:40;9.90;99.90
33825;DHT22;20127;48.962;8.342;2023-11-21T01:47:44;9.80;99.90
33825;DHT22;20127;48.962;8.342;2023-11-21T01:50:46;9.80;99.90
33825;DHT22;20127;48.962;8.342;2023-11-21T01:53:49;9.70;99.90
33825;DHT22;20127;48.962;8.342;2023-11-21T01:56:51;9.70;99.90
33825;DHT22;20127;48.962;8.342;2023-11-21T01:59:54;9.70;99.90
33825;DHT22;20127;48.962;8.342;2023-11-21T02:02:58;9.70;99.90
33825;DHT22;20127;48.962;8.342;2023-11-21T02:05:59;9.70;99.90
33825;DHT22;20127;48.962;8.342;2023-11-21T02:09:01;9.60;99.90
33825;DHT22;20127;48.962;8.342;2023-11-21T02:12:05;9.60;99.90
33825;DHT22;20127;48.962;8.342;2023-11-21T02:15:08;9.50;99.90
33825;DHT22;20127;48.962;8.342;2023-11-21T02:18:16;9.40;99.90
33825;DHT22;20127;48.962;8.342;2023-11-21T02:21:18;9.30;99.90
33825;DHT22;20127;48.962;8.342;2023-11-21T02:24:22;9.20;99.90
33825;DHT22;20127;48.962;8.342;2023-11-21T02:27:24;9.10;99.90
33825;DHT22;20127;48.962;8.342;2023-11-21T02:30:28;9.00;99.90
33825;DHT22;20127;48.962;8.342;2023-11-21T02:33:32;9.00;99.90
33825;DHT22;20127;48.962;8.342;2023-11-21T02:36:34;8.90;99.90
33825;DHT22;20127;48.962;8.342;2023-11-21T02:39:38;8.90;99.90
33825;DHT22;20127;48.962;8.342;2023-11-21T02:42:40;8.90;99.90
33825;DHT22;20127;48.962;8.342;2023-11-21T02:45:42;8.90;99.90
33825;DHT22;20127;48.962;8.342;2023-11-21T02:48:44;8.90;99.90
33825;DHT22;20127;48.962;8.342;2023-11-21T02:51:45;8.90;99.90
33825;DHT22;20127;48.962;8.342;2023-11-21T02:54:48;8.90;99.90
33825;DHT22;20127;48.962;8.342;2023-11-21T02:57:50;8.90;99.90
33825;DHT22;20127;48.962;8.342;2023-11-21T03:00:52;8.90;99.90
33825;DHT22;20127;48.962;8.342;2023-11-21T03:03:54;8.90;99.90
33825;DHT22;20127;48.962;8.342;2023-11-21T03:06:57;8.90;99.90
33825;DHT22;20127;48.962;8.342;2023-11-21T03:10:00;8.80;99.90
33825;DHT22;20127;48.962;8.342;2023-11-21T03:13:01;8.80;99.90
33825;DHT22;20127;48.962;8.342;2023-11-21T03:16:03;8.90;99.90
33825;DHT22;20127;48.962;8.342;2023-11-21T03:19:06;8.90;99.90
33825;DHT22;20127;48.962;8.342;2023-11-21T03:22:08;8.90;99.90
33825;DHT22;20127;48.962;8.342;2023-11-21T03:25:13;8.90;99.90
33825;DHT22;20127;48.962;8.342;2023-11-21T03:28:15;8.90;99.90
33825;DHT22;20127;48.962;8.342;2023-11-21T03:31:16;8.90;99.90
33825;DHT22;20127;48.962;8.342;2023-11-21T03:34:23;8.90;99.90
33825;DHT22;20127;48.962;8.342;2023-11-21T03:37:26;9.00;99.90
33825;DHT22;20127;48.962;8.342;2023-11-21T03:40:29;9.00;99.90
33825;DHT22;20127;48.962;8.342;2023-11-21T03:43:32;9.00;99.90
33825;DHT22;20127;48.962;8.342;2023-11-21T03:46:33;9.10;99.90
33825;DHT22;20127;48.962;8.342;2023-11-21T03:49:35;9.10;99.90
33825;DHT22;20127;48.962;8.342;2023-11-21T03:52:37;9.10;99.90
33825;DHT22;20127;48.962;8.342;2023-11-21T03:55:40;9.10;99.90
33825;DHT22;20127;48.962;8.342;2023-11-21T03:58:42;9.10;99.90
33825;DHT22;20127;48.962;8.342;2023-11-21T04:01:43;9.10;99.90
33825;DHT22;20127;48.962;8.342;2023-11-21T04:04:45;9.10;99.90
33825;DHT22;20127;48.962;8.342;2023-11-21T04:10:50;9.10;99.90
33825;DHT22;20127;48.962;8.342;2023-11-21T04:13:53;9.10;99.90
33825;DHT22;20127;48.962;8.342;2023-11-21T04:16:55;9.10;99.90
33825;DHT22;20127;48.962;8.342;2023-11-21T04:19:57;9.10;99.90
33825;DHT22;20127;48.962;8.342;2023-11-21T04:22:58;9.10;99.90
33825;DHT22;20127;48.962;8.342;2023-11-21T04:26:02;9.10;99.90
33825;DHT22;20127;48.962;8.342;2023-11-21T04:29:03;9.10;99.90
33825;DHT22;20127;48.962;8.342;2023-11-21T04:32:06;9.20;99.90
33825;DHT22;20127;48.962;8.342;2023-11-21T04:35:08;9.20;99.90
33825;DHT22;20127;48.962;8.342;2023-11-21T04:38:10;9.20;99.90
33825;DHT22;20127;48.962;8.342;2023-11-21T04:41:13;9.10;99.90
33825;DHT22;20127;48.962;8.342;2023-11-21T04:44:15;9.20;99.90
33825;DHT22;20127;48.962;8.342;2023-11-21T04:47:17;9.20;99.90
33825;DHT22;20127;48.962;8.342;2023-11-21T04:50:20;9.20;99.90
33825;DHT22;20127;48.962;8.342;2023-11-21T04:53:21;9.20;99.90
33825;DHT22;20127;48.962;8.342;2023-11-21T04:56:25;9.20;99.90
33825;DHT22;20127;48.962;8.342;2023-11-21T04:59:26;9.20;99.90
33825;DHT22;20127;48.962;8.342;2023-11-21T05:02:28;9.20;99.90
33825;DHT22;20127;48.962;8.342;2023-11-21T05:05:30;9.20;99.90
33825;DHT22;20127;48.962;8.342;2023-11-21T05:08:31;9.20;99.90
33825;DHT22;20127;48.962;8.342;2023-11-21T05:11:35;9.30;99.90
33825;DHT22;20127;48.962;8.342;2023-11-21T05:14:37;9.30;99.90
33825;DHT22;20127;48.962;8.342;2023-11-21T05:17:38;9.30;99.90
33825;DHT22;20127;48.962;8.342;2023-11-21T05:20:42;9.30;99.90
33825;DHT22;20127;48.962;8.342;2023-11-21T05:23:43;9.30;99.90
33825;DHT22;20127;48.962;8.342;2023-11-21T05:26:47;9.30;99.90
33825;DHT22;20127;48.962;8.342;2023-11-21T05:29:50;9.30;99.90
33825;DHT22;20127;48.962;8.342;2023-11-21T05:32:52;9.30;99.90
33825;DHT22;20127;48.962;8.342;2023-11-21T05:35:54;9.30;99.90
33825;DHT22;20127;48.962;8.342;2023-11-21T05:38:56;9.30;99.90
33825;DHT22;20127;48.962;8.342;2023-11-21T05:42:00;9.30;99.90
33825;DHT22;20127;48.962;8.342;2023-11-21T05:45:02;9.30;99.90
33825;DHT22;20127;48.962;8.342;2023-11-21T05:48:10;9.30;99.90
33825;DHT22;20127;48.962;8.342;2023-11-21T05:51:11;9.20;99.90
33825;DHT22;20127;48.962;8.342;2023-11-21T05:54:14;9.30;99.90
33825;DHT22;20127;48.962;8.342;2023-11-21T05:57:18;9.20;99.90
33825;DHT22;20127;48.962;8.342;2023-11-21T06:00:20;9.20;99.90
33825;DHT22;20127;48.962;8.342;2023-11-21T06:03:22;9.20;99.90
33825;DHT22;20127;48.962;8.342;2023-11-21T06:06:25;9.20;99.90
33825;DHT22;20127;48.962;8.342;2023-11-21T06:09:27;9.20;99.90
33825;DHT22;20127;48.962;8.342;2023-11-21T06:12:30;9.20;99.90
33825;DHT22;20127;48.962;8.342;2023-11-21T06:15:36;9.20;99.90
33825;DHT22;20127;48.962;8.342;2023-11-21T06:18:37;9.20;99.90
33825;DHT22;20127;48.962;8.342;2023-11-21T06:21:39;9.20;99.90
33825;DHT22;20127;48.962;8.342;2023-11-21T06:24:41;9.20;99.90
33825;DHT22;20127;48.962;8.342;2023-11-21T06:27:45;9.20;99.90
33825;DHT22;20127;48.962;8.342;2023-11-21T06:30:48;9.20;99.90
33825;DHT22;20127;48.962;8.342;2023-11-21T06:33:51;9.20;99.90
33825;DHT22;20127;48.962;8.342;2023-11-21T06:36:53;9.20;99.90
33825;DHT22;20127;48.962;8.342;2023-11-21T06:39:55;9.20;99.90
33825;DHT22;20127;48.962;8.342;2023-11-21T06:42:59;9.20;99.90
33825;DHT22;20127;48.962;8.342;2023-11-21T06:46:01;9.20;99.90
33825;DHT22;20127;48.962;8.342;2023-11-21T06:49:05;9.20;99.90
33825;DHT22;20127;48.962;8.342;2023-11-21T06:52:07;9.20;99.90
33825;DHT22;20127;48.962;8.342;2023-11-21T06:55:09;9.20;99.90
33825;DHT22;20127;48.962;8.342;2023-11-21T06:58:12;9.30;99.90
33825;DHT22;20127;48.962;8.342;2023-11-21T07:01:15;9.30;99.90
33825;DHT22;20127;48.962;8.342;2023-11-21T07:04:16;9.30;99.90
33825;DHT22;20127;48.962;8.342;2023-11-21T07:07:19;9.30;99.90
33825;DHT22;20127;48.962;8.342;2023-11-21T07:10:20;9.30;99.90
33825;DHT22;20127;48.962;8.342;2023-11-21T07:13:23;9.30;99.90
33825;DHT22;20127;48.962;8.342;2023-11-21T07:16:26;9.30;99.90
33825;DHT22;20127;48.962;8.342;2023-11-21T07:19:28;9.30;99.90
33825;DHT22;20127;48.962;8.342;2023-11-21T07:22:30;9.30;99.90
33825;DHT22;20127;48.962;8.342;2023-11-21T07:25:31;9.30;99.90
33825;DHT22;20127;48.962;8.342;2023-11-21T07:28:35;9.30;99.90
33825;DHT22;20127;48.962;8.342;2023-11-21T07:31:37;9.30;99.90
33825;DHT22;20127;48.962;8.342;2023-11-21T07:34:38;9.30;99.90
33825;DHT22;20127;48.962;8.342;2023-11-21T07:37:40;9.30;99.90
33825;DHT22;20127;48.962;8.342;2023-11-21T07:40:42;9.40;99.90
33825;DHT22;20127;48.962;8.342;2023-11-21T07:43:45;9.40;99.90
33825;DHT22;20127;48.962;8.342;2023-11-21T07:46:48;9.40;99.90
33825;DHT22;20127;48.962;8.342;2023-11-21T07:49:50;9.40;99.90
33825;DHT22;20127;48.962;8.342;2023-11-21T07:52:51;9.50;99.90
33825;DHT22;20127;48.962;8.342;2023-11-21T07:55:54;9.50;99.90
33825;DHT22;20127;48.962;8.342;2023-11-21T07:58:57;9.50;99.90
33825;DHT22;20127;48.962;8.342;2023-11-21T08:01:59;9.60;99.90
33825;DHT22;20127;48.962;8.342;2023-11-21T08:05:01;9.60;99.90
33825;DHT22;20127;48.962;8.342;2023-11-21T08:08:03;9.60;99.90
33825;DHT22;20127;48.962;8.342;2023-11-21T08:11:05;9.50;99.90
33825;DHT22;20127;48.962;8.342;2023-11-21T08:14:10;9.50;99.90
33825;DHT22;20127;48.962;8.342;2023-11-21T08:17:11;9.50;99.90
33825;DHT22;20127;48.962;8.342;2023-11-21T08:20:14;9.50;99.90
33825;DHT22;20127;48.962;8.342;2023-11-21T08:23:18;9.50;99.90
33825;DHT22;20127;48.962;8.342;2023-11-21T08:26:19;9.50;99.90
33825;DHT22;20127;48.962;8.342;2023-11-21T08:29:22;9.50;99.90
33825;DHT22;20127;48.962;8.342;2023-11-21T08:32:24;9.60;99.90
33825;DHT22;20127;48.962;8.342;2023-11-21T08:35:26;9.60;99.90
33825;DHT22;20127;48.962;8.342;2023-11-21T08:38:28;9.60;99.90
33825;DHT22;20127;48.962;8.342;2023-11-21T08:41:29;9.60;99.90
33825;DHT22;20127;48.962;8.342;2023-11-21T08:44:32;9.60;99.90
33825;DHT22;20127;48.962;8.342;2023-11-21T08:47:34;9.60;99.90
33825;DHT22;20127;48.962;8.342;2023-11-21T08:50:37;9.70;99.90
33825;DHT22;20127;48.962;8.342;2023-11-21T08:53:38;9.70;99.90
33825;DHT22;20127;48.962;8.342;2023-11-21T08:56:40;9.80;99.90
33825;DHT22;20127;48.962;8.342;2023-11-21T08:59:43;9.80;99.90
33825;DHT22;20127;48.962;8.342;2023-11-21T09:02:45;9.80;99.90
33825;DHT22;20127;48.962;8.342;2023-11-21T09:05:47;9.90;99.90
33825;DHT22;20127;48.962;8.342;2023-11-21T09:08:49;9.90;99.90
33825;DHT22;20127;48.962;8.342;2023-11-21T09:11:50;10.00;99.90
33825;DHT22;20127;48.962;8.342;2023-11-21T09:14:53;10.00;99.90
33825;DHT22;20127;48.962;8.342;2023-11-21T09:17:55;10.00;99.90
33825;DHT22;20127;48.962;8.342;2023-11-21T09:20:57;10.00;99.90
33825;DHT22;20127;48.962;8.342;2023-11-21T09:23:58;10.10;99.90
33825;DHT22;20127;48.962;8.342;2023-11-21T09:27:00;10.10;99.90
33825;DHT22;20127;48.962;8.342;2023-11-21T09:30:04;10.10;99.90
33825;DHT22;20127;48.962;8.342;2023-11-21T09:33:09;10.10;99.90
33825;DHT22;20127;48.962;8.342;2023-11-21T09:36:11;10.10;99.90
33825;DHT22;20127;48.962;8.342;2023-11-21T09:39:14;10.10;99.90
33825;DHT22;20127;48.962;8.342;2023-11-21T09:42:21;10.10;99.90
33825;DHT22;20127;48.962;8.342;2023-11-21T09:45:28;10.20;99.90
33825;DHT22;20127;48.962;8.342;2023-11-21T09:48:32;10.10;99.90
33825;DHT22;20127;48.962;8.342;2023-11-21T09:51:36;10.10;99.90
33825;DHT22;20127;48.962;8.342;2023-11-21T09:54:39;10.20;99.90
33825;DHT22;20127;48.962;8.342;2023-11-21T09:57:41;10.20;99.90
33825;DHT22;20127;48.962;8.342;2023-11-21T10:00:46;10.20;99.90
33825;DHT22;20127;48.962;8.342;2023-11-21T10:03:48;10.30;99.90
33825;DHT22;20127;48.962;8.342;2023-11-21T10:06:50;10.30;99.90
33825;DHT22;20127;48.962;8.342;2023-11-21T10:09:54;10.40;99.90
33825;DHT22;20127;48.962;8.342;2023-11-21T10:12:57;10.40;99.90
33825;DHT22;20127;48.962;8.342;2023-11-21T10:16:06;10.40;99.90
33825;DHT22;20127;48.962;8.342;2023-11-21T10:19:10;10.30;99.90
33825;DHT22;20127;48.962;8.342;2023-11-21T10:22:17;10.30;99.90
33825;DHT22;20127;48.962;8.342;2023-11-21T10:25:20;10.30;99.90
33825;DHT22;20127;48.962;8.342;2023-11-21T10:28:22;10.30;99.90
33825;DHT22;20127;48.962;8.342;2023-11-21T10:31:27;10.30;99.90
33825;DHT22;20127;48.962;8.342;2023-11-21T10:34:28;10.30;99.90
33825;DHT22;20127;48.962;8.342;2023-11-21T10:37:30;10.20;99.90
33825;DHT22;20127;48.962;8.342;2023-11-21T10:40:32;10.20;99.90
33825;DHT22;20127;48.962;8.342;2023-11-21T10:43:34;10.20;99.90
33825;DHT22;20127;48.962;8.342;2023-11-21T10:46:38;10.20;99.90
33825;DHT22;20127;48.962;8.342;2023-11-21T10:49:40;10.20;99.90
33825;DHT22;20127;48.962;8.342;2023-11-21T10:52:45;10.20;99.90
33825;DHT22;20127;48.962;8.342;2023-11-21T10:55:47;10.20;99.90
33825;DHT22;20127;48.962;8.342;2023-11-21T10:58:49;10.20;99.90
33825;DHT22;20127;48.962;8.342;2023-11-21T11:01:53;10.20;99.90
33825;DHT22;20127;48.962;8.342;2023-11-21T11:04:56;10.10;99.90
33825;DHT22;20127;48.962;8.342;2023-11-21T11:08:04;10.10;99.90
33825;DHT22;20127;48.962;8.342;2023-11-21T11:11:06;10.10;99.90
33825;DHT22;20127;48.962;8.342;2023-11-21T11:14:09;10.10;99.90
33825;DHT22;20127;48.962;8.342;2023-11-21T11:17:13;10.10;99.90
33825;DHT22;20127;48.962;8.342;2023-11-21T11:20:17;10.10;99.90
33825;DHT22;20127;48.962;8.342;2023-11-21T11:23:36;10.10;99.90
33825;DHT22;20127;48.962;8.342;2023-11-21T11:26:46;10.10;99.90
33825;DHT22;20127;48.962;8.342;2023-11-21T11:29:56;10.10;99.90
33825;DHT22;20127;48.962;8.342;2023-11-21T11:33:09;10.10;99.90
33825;DHT22;20127;48.962;8.342;2023-11-21T11:36:17;10.10;99.90
33825;DHT22;20127;48.962;8.342;2023-11-21T11:39:28;10.10;99.90
33825;DHT22;20127;48.962;8.342;2023-11-21T11:42:32;10.10;99.90
33825;DHT22;20127;48.962;8.342;2023-11-21T11:45:35;10.20;99.90
33825;DHT22;20127;48.962;8.342;2023-11-21T11:48:43;10.20;99.90
33825;DHT22;20127;48.962;8.342;2023-11-21T11:51:45;10.20;99.90
33825;DHT22;20127;48.962;8.342;2023-11-21T11:54:49;10.30;99.90
33825;DHT22;20127;48.962;8.342;2023-11-21T11:57:52;10.30;99.90
33825;DHT22;20127;48.962;8.342;2023-11-21T12:00:55;10.40;99.90
33825;DHT22;20127;48.962;8.342;2023-11-21T12:04:25;10.40;99.90
33825;DHT22;20127;48.962;8.342;2023-11-21T12:07:43;10.50;99.90
33825;DHT22;20127;48.962;8.342;2023-11-21T12:10:46;10.50;99.90
33825;DHT22;20127;48.962;8.342;2023-11-21T12:13:49;10.60;99.90
33825;DHT22;20127;48.962;8.342;2023-11-21T12:16:52;10.60;99.90
33825;DHT22;20127;48.962;8.342;2023-11-21T12:20:01;10.70;99.90
33825;DHT22;20127;48.962;8.342;2023-11-21T12:23:05;10.70;99.90
33825;DHT22;20127;48.962;8.342;2023-11-21T12:26:07;10.70;99.90
33825;DHT22;20127;48.962;8.342;2023-11-21T12:29:08;10.70;99.90
33825;DHT22;20127;48.962;8.342;2023-11-21T12:32:11;10.70;99.90
33825;DHT22;20127;48.962;8.342;2023-11-21T12:35:17;10.70;99.90
33825;DHT22;20127;48.962;8.342;2023-11-21T12:38:19;10.80;99.90
33825;DHT22;20127;48.962;8.342;2023-11-21T12:41:25;10.80;99.90
33825;DHT22;20127;48.962;8.342;2023-11-21T12:44:26;10.90;99.90
33825;DHT22;20127;48.962;8.342;2023-11-21T12:47:28;10.90;99.90
33825;DHT22;20127;48.962;8.342;2023-11-21T12:50:31;11.00;99.90
33825;DHT22;20127;48.962;8.342;2023-11-21T12:53:34;11.10;99.90
33825;DHT22;20127;48.962;8.342;2023-11-21T12:56:38;11.10;99.90
33825;DHT22;20127;48.962;8.342;2023-11-21T12:59:40;11.00;99.90
33825;DHT22;20127;48.962;8.342;2023-11-21T13:02:44;11.00;99.90
33825;DHT22;20127;48.962;8.342;2023-11-21T13:05:48;11.00;99.90
33825;DHT22;20127;48.962;8.342;2023-11-21T13:08:51;11.00;99.90
33825;DHT22;20127;48.962;8.342;2023-11-21T13:11:59;11.00;99.90
33825;DHT22;20127;48.962;8.342;2023-11-21T13:15:04;11.00;99.90
33825;DHT22;20127;48.962;8.342;2023-11-21T13:18:07;11.00;99.90
33825;DHT22;20127;48.962;8.342;2023-11-21T13:21:12;11.00;99.90
33825;DHT22;20127;48.962;8.342;2023-11-21T13:24:15;11.00;99.90
33825;DHT22;20127;48.962;8.342;2023-11-21T13:27:17;11.00;99.90
33825;DHT22;20127;48.962;8.342;2023-11-21T13:30:19;11.00;99.90
33825;DHT22;20127;48.962;8.342;2023-11-21T13:33:26;11.00;99.90
33825;DHT22;20127;48.962;8.342;2023-11-21T13:36:30;11.10;99.90
33825;DHT22;20127;48.962;8.342;2023-11-21T13:39:35;11.10;99.90
33825;DHT22;20127;48.962;8.342;2023-11-21T13:42:38;11.20;99.90
33825;DHT22;20127;48.962;8.342;2023-11-21T13:45:43;11.20;99.90
33825;DHT22;20127;48.962;8.342;2023-11-21T13:48:45;11.20;99.90
33825;DHT22;20127;48.962;8.342;2023-11-21T13:51:52;11.10;99.90
33825;DHT22;20127;48.962;8.342;2023-11-21T13:54:55;11.10;99.90
33825;DHT22;20127;48.962;8.342;2023-11-21T13:57:58;11.10;99.90
33825;DHT22;20127;48.962;8.342;2023-11-21T14:01:00;11.20;99.90
33825;DHT22;20127;48.962;8.342;2023-11-21T14:04:06;11.30;99.90
33825;DHT22;20127;48.962;8.342;2023-11-21T14:07:20;11.30;99.90
33825;DHT22;20127;48.962;8.342;2023-11-21T14:10:30;11.30;99.90
33825;DHT22;20127;48.962;8.342;2023-11-21T14:13:40;11.40;99.90
33825;DHT22;20127;48.962;8.342;2023-11-21T14:16:47;11.40;99.90
33825;DHT22;20127;48.962;8.342;2023-11-21T14:19:49;11.30;99.90
33825;DHT22;20127;48.962;8.342;2023-11-21T14:22:52;11.30;99.90
33825;DHT22;20127;48.962;8.342;2023-11-21T14:25:54;11.30;99.90
33825;DHT22;20127;48.962;8.342;2023-11-21T14:28:56;11.20;99.90
33825;DHT22;20127;48.962;8.342;2023-11-21T14:31:59;11.10;99.90
33825;DHT22;20127;48.962;8.342;2023-11-21T14:35:02;11.10;99.90
33825;DHT22;20127;48.962;8.342;2023-11-21T14:38:05;11.10;99.90
33825;DHT22;20127;48.962;8.342;2023-11-21T14:41:07;11.10;99.90
33825;DHT22;20127;48.962;8.342;2023-11-21T14:44:11;11.20;99.90
33825;DHT22;20127;48.962;8.342;2023-11-21T14:47:14;11.20;99.90
33825;DHT22;20127;48.962;8.342;2023-11-21T14:50:16;11.30;99.90
33825;DHT22;20127;48.962;8.342;2023-11-21T14:53:36;11.30;99.90
33825;DHT22;20127;48.962;8.342;2023-11-21T14:56:55;11.30;99.90
33825;DHT22;20127;48.962;8.342;2023-11-21T14:59:57;11.30;99.90
33825;DHT22;20127;48.962;8.342;2023-11-21T15:02:59;11.30;99.90
33825;DHT22;20127;48.962;8.342;2023-11-21T15:06:00;11.20;99.90
33825;DHT22;20127;48.962;8.342;2023-11-21T15:09:20;11.10;99.90
33825;DHT22;20127;48.962;8.342;2023-11-21T15:12:28;11.10;99.90
33825;DHT22;20127;48.962;8.342;2023-11-21T15:15:34;11.10;99.90
33825;DHT22;20127;48.962;8.342;2023-11-21T15:18:37;11.00;99.90
33825;DHT22;20127;48.962;8.342;2023-11-21T15:21:39;11.00;99.90
33825;DHT22;20127;48.962;8.342;2023-11-21T15:24:42;11.00;99.90
33825;DHT22;20127;48.962;8.342;2023-11-21T15:27:46;10.90;99.90
33825;DHT22;20127;48.962;8.342;2023-11-21T15:30:50;10.80;99.90
33825;DHT22;20127;48.962;8.342;2023-11-21T15:33:52;10.80;99.90
33825;DHT22;20127;48.962;8.342;2023-11-21T15:36:54;10.70;99.90
33825;DHT22;20127;48.962;8.342;2023-11-21T15:39:57;10.60;99.90
33825;DHT22;20127;48.962;8.342;2023-11-21T15:42:59;10.50;99.90
33825;DHT22;20127;48.962;8.342;2023-11-21T15:46:03;10.40;99.90
33825;DHT22;20127;48.962;8.342;2023-11-21T15:49:08;10.30;99.90
33825;DHT22;20127;48.962;8.342;2023-11-21T15:52:13;10.20;99.90
33825;DHT22;20127;48.962;8.342;2023-11-21T15:55:16;10.20;99.90
33825;DHT22;20127;48.962;8.342;2023-11-21T15:58:17;10.10;99.90
33825;DHT22;20127;48.962;8.342;2023-11-21T16:01:19;10.00;99.90
33825;DHT22;20127;48.962;8.342;2023-11-21T16:04:22;9.90;99.90
33825;DHT22;20127;48.962;8.342;2023-11-21T16:07:27;9.80;99.90
33825;DHT22;20127;48.962;8.342;2023-11-21T16:10:30;9.70;99.90
33825;DHT22;20127;48.962;8.342;2023-11-21T16:13:31;9.70;99.90
33825;DHT22;20127;48.962;8.342;2023-11-21T16:16:34;9.60;99.90
33825;DHT22;20127;48.962;8.342;2023-11-21T16:19:38;9.50;99.90
33825;DHT22;20127;48.962;8.342;2023-11-21T16:22:40;9.50;99.90
33825;DHT22;20127;48.962;8.342;2023-11-21T16:25:43;9.40;99.90
33825;DHT22;20127;48.962;8.342;2023-11-21T16:28:45;9.30;99.90
33825;DHT22;20127;48.962;8.342;2023-11-21T16:31:47;9.30;99.90
33825;DHT22;20127;48.962;8.342;2023-11-21T16:34:51;9.30;99.90
33825;DHT22;20127;48.962;8.342;2023-11-21T16:37:53;9.20;99.90
33825;DHT22;20127;48.962;8.342;2023-11-21T16:40:56;9.10;99.90
33825;DHT22;20127;48.962;8.342;2023-11-21T16:43:58;9.10;99.90
33825;DHT22;20127;48.962;8.342;2023-11-21T16:47:01;9.00;99.90
33825;DHT22;20127;48.962;8.342;2023-11-21T16:50:06;8.90;99.90
33825;DHT22;20127;48.962;8.342;2023-11-21T16:53:08;8.90;99.90
33825;DHT22;20127;48.962;8.342;2023-11-21T16:56:12;8.80;99.90
33825;DHT22;20127;48.962;8.342;2023-11-21T16:59:13;8.80;99.90
33825;DHT22;20127;48.962;8.342;2023-11-21T17:02:15;8.70;99.90
33825;DHT22;20127;48.962;8.342;2023-11-21T17:05:17;8.60;99.90
33825;DHT22;20127;48.962;8.342;2023-11-21T17:08:20;8.60;99.90
33825;DHT22;20127;48.962;8.342;2023-11-21T17:11:23;8.60;99.90
33825;DHT22;20127;48.962;8.342;2023-11-21T17:14:25;8.60;99.90
33825;DHT22;20127;48.962;8.342;2023-11-21T17:17:26;8.50;99.90
33825;DHT22;20127;48.962;8.342;2023-11-21T17:20:28;8.50;99.90
33825;DHT22;20127;48.962;8.342;2023-11-21T17:23:30;8.50;99.90
33825;DHT22;20127;48.962;8.342;2023-11-21T17:26:33;8.50;99.90
33825;DHT22;20127;48.962;8.342;2023-11-21T17:29:35;8.50;99.90
33825;DHT22;20127;48.962;8.342;2023-11-21T17:32:37;8.50;99.90
33825;DHT22;20127;48.962;8.342;2023-11-21T17:35:39;8.50;99.90
33825;DHT22;20127;48.962;8.342;2023-11-21T17:38:42;8.50;99.90
33825;DHT22;20127;48.962;8.342;2023-11-21T17:41:45;8.50;99.90
33825;DHT22;20127;48.962;8.342;2023-11-21T17:44:46;8.60;99.90
33825;DHT22;20127;48.962;8.342;2023-11-21T17:47:48;8.60;99.90
33825;DHT22;20127;48.962;8.342;2023-11-21T17:50:50;8.60;99.90
33825;DHT22;20127;48.962;8.342;2023-11-21T17:53:52;8.60;99.90
33825;DHT22;20127;48.962;8.342;2023-11-21T17:56:59;8.60;99.90
33825;DHT22;20127;48.962;8.342;2023-11-21T18:00:01;8.60;99.90
33825;DHT22;20127;48.962;8.342;2023-11-21T18:03:05;8.60;99.90
33825;DHT22;20127;48.962;8.342;2023-11-21T18:06:10;8.70;99.90
33825;DHT22;20127;48.962;8.342;2023-11-21T18:09:13;8.70;99.90
33825;DHT22;20127;48.962;8.342;2023-11-21T18:12:17;8.70;99.90
33825;DHT22;20127;48.962;8.342;2023-11-21T18:15:20;8.80;99.90
33825;DHT22;20127;48.962;8.342;2023-11-21T18:18:22;8.90;99.90
33825;DHT22;20127;48.962;8.342;2023-11-21T18:21:25;9.00;99.90
33825;DHT22;20127;48.962;8.342;2023-11-21T18:24:27;9.00;99.90
33825;DHT22;20127;48.962;8.342;2023-11-21T18:27:30;9.10;99.90
33825;DHT22;20127;48.962;8.342;2023-11-21T18:30:31;9.10;99.90
33825;DHT22;20127;48.962;8.342;2023-11-21T18:33:33;9.10;99.90
33825;DHT22;20127;48.962;8.342;2023-11-21T18:36:35;9.20;99.90
33825;DHT22;20127;48.962;8.342;2023-11-21T18:39:37;9.20;99.90
33825;DHT22;20127;48.962;8.342;2023-11-21T18:42:40;9.20;99.90
33825;DHT22;20127;48.962;8.342;2023-11-21T18:45:44;9.20;99.90
33825;DHT22;20127;48.962;8.342;2023-11-21T18:48:46;9.20;99.90
33825;DHT22;20127;48.962;8.342;2023-11-21T18:51:49;9.30;99.90
33825;DHT22;20127;48.962;8.342;2023-11-21T18:54:51;9.30;99.90
33825;DHT22;20127;48.962;8.342;2023-11-21T18:57:54;9.30;99.90
33825;DHT22;20127;48.962;8.342;2023-11-21T19:00:56;9.30;99.90
33825;DHT22;20127;48.962;8.342;2023-11-21T19:03:58;9.30;99.90
33825;DHT22;20127;48.962;8.342;2023-11-21T19:07:01;9.30;99.90
33825;DHT22;20127;48.962;8.342;2023-11-21T19:10:02;9.30;99.90
33825;DHT22;20127;48.962;8.342;2023-11-21T19:13:06;9.30;99.90
33825;DHT22;20127;48.962;8.342;2023-11-21T19:16:09;9.30;99.90
33825;DHT22;20127;48.962;8.342;2023-11-21T19:19:11;9.20;99.90
33825;DHT22;20127;48.962;8.342;2023-11-21T19:22:13;9.20;99.90
33825;DHT22;20127;48.962;8.342;2023-11-21T19:25:15;9.20;99.90
33825;DHT22;20127;48.962;8.342;2023-11-21T19:28:18;9.10;99.90
33825;DHT22;20127;48.962;8.342;2023-11-21T19:31:20;9.10;99.90